< Typhoon 195805 1958 Season Typhoon 195807 >
Typhoon 195806 (NO-NAME)
General InformationTrack Information on Google Maps || Disaster Info.ResourceGoogle EarthGE AnimationAtom FeedGeoJSON
Detalied Best Track (Time Zone = UTC)
Year Month Day Hour Lat. Long. Pressure (hPa) Wind (kt) Class Image Chart
1958 6 8 00 20.0 127.0 1005 0 2 -- Chart
1958 6 8 06 21.0 127.3 1002 0 2 -- Chart
1958 6 8 12 21.5 127.6 1002 0 2 -- Chart
1958 6 8 18 22.3 129.0 1000 0 2 -- Chart
1958 6 9 00 21.5 128.5 1002 0 2 -- Chart
1958 6 9 06 21.1 128.2 1002 0 2 -- Chart
1958 6 9 12 20.7 128.0 1002 0 2 -- Chart
1958 6 9 18 20.7 127.6 1000 0 2 -- Chart
1958 6 10 00 20.9 127.0 1000 0 2 -- Chart
1958 6 10 06 21.2 126.2 1000 0 2 -- Chart
1958 6 10 12 22.0 125.3 1000 0 2 -- Chart
1958 6 10 18 23.0 125.0 1000 0 2 -- Chart
1958 6 11 00 24.1 125.6 1000 0 2 -- Chart
1958 6 11 06 26.0 127.1 998 0 9 -- Chart
1958 6 11 12 27.5 128.5 998 0 9 -- Chart
1958 6 11 18 29.0 130.0 1000 0 9 -- Chart
1958 6 12 00 30.0 132.9 998 0 9 -- Chart
1958 6 12 06 30.6 134.2 1000 0 6 -- Chart
1958 6 12 12 30.6 135.2 1000 0 6 -- Chart
1958 6 12 18 30.2 136.0 1000 0 6 -- Chart
1958 6 13 00 30.0 138.0 1000 0 6 -- Chart
Japan Meteorological Agency Best Track Data | Correction Date : 1989-06-01
< Typhoon 195805 1958 Season Typhoon 195807 >

Help